Time;durP1;ratioP1;P1;durP2;ratioP2;P2;SDS_P1;SDS_P2;PMS_P1;PMS_P2;Temp;Humidity;BMP_temperature;BMP_pressure;BME280_temperature;BME280_humidity;BME280_pressure;Samples;Min_cycle;Max_cycle;Signal;HPM_P1;HPM_P2
2022/01/18 00:01:03;;;;;;;27.57;17.60;;;;;;;;;;5100716;28;20202;-78
2022/01/18 00:03:31;;;;;;;27.63;17.37;;;;;;;;;;5090494;28;20638;-78
2022/01/18 00:06:00;;;;;;;35.73;21.30;;;;;;;;;;5090942;28;20226;-78
2022/01/18 00:08:27;;;;;;;29.47;17.73;;;;;;;;;;5091286;28;20222;-78
2022/01/18 00:10:54;;;;;;;29.83;19.03;;;;;;;;;;5090366;28;20291;-78
2022/01/18 00:13:37;;;;;;;36.03;23.47;;;;;;;;;;5091265;28;20238;-78
2022/01/18 00:16:12;;;;;;;65.40;36.40;;;;;;;;;;5091409;28;20285;-78
2022/01/18 00:18:40;;;;;;;50.57;30.77;;;;;;;;;;5090537;28;20194;-78
2022/01/18 00:21:21;;;;;;;68.87;41.07;;;;;;;;;;5092630;28;20194;-78
2022/01/18 00:23:51;;;;;;;36.33;23.07;;;;;;;;;;5095057;28;20292;-78
2022/01/18 00:26:19;;;;;;;92.73;54.93;;;;;;;;;;5094530;28;20199;-78
2022/01/18 00:28:51;;;;;;;43.33;28.70;;;;;;;;;;5094150;28;20241;-78
2022/01/18 00:34:07;;;;;;;41.23;26.57;;;;;;;;;;5083577;28;20203;-78
2022/01/18 00:36:40;;;;;;;92.17;67.30;;;;;;;;;;5095083;28;20214;-78
2022/01/18 00:39:08;;;;;;;39.63;27.73;;;;;;;;;;5098285;28;20681;-78
2022/01/18 00:41:36;;;;;;;29.13;18.23;;;;;;;;;;5094893;28;20281;-78
2022/01/18 00:44:04;;;;;;;31.10;17.50;;;;;;;;;;5094157;28;20203;-78
2022/01/18 00:46:31;;;;;;;31.53;18.10;;;;;;;;;;5094546;28;20198;-78
2022/01/18 00:49:01;;;;;;;30.00;17.43;;;;;;;;;;5093559;28;20229;-78
2022/01/18 00:51:28;;;;;;;27.57;18.73;;;;;;;;;;5102275;28;20197;-78
2022/01/18 00:53:59;;;;;;;35.47;22.83;;;;;;;;;;5097270;28;20199;-78
2022/01/18 00:56:28;;;;;;;30.60;18.67;;;;;;;;;;5093485;28;20222;-78
2022/01/18 00:58:56;;;;;;;30.00;18.20;;;;;;;;;;5094033;28;20194;-78
2022/01/18 01:01:24;;;;;;;31.70;18.67;;;;;;;;;;5093735;28;20309;-78
2022/01/18 01:03:54;;;;;;;40.07;24.03;;;;;;;;;;5093944;28;20290;-78
2022/01/18 01:06:22;;;;;;;36.53;23.53;;;;;;;;;;5095557;28;20263;-78
2022/01/18 01:08:50;;;;;;;38.50;24.37;;;;;;;;;;5099312;28;20279;-78
2022/01/18 01:11:19;;;;;;;37.40;22.03;;;;;;;;;;5093899;28;20205;-78
2022/01/18 01:13:48;;;;;;;35.20;21.43;;;;;;;;;;5093733;28;20237;-78
2022/01/18 01:16:37;;;;;;;32.93;20.67;;;;;;;;;;5093343;28;20198;-78
2022/01/18 01:19:20;;;;;;;29.43;18.17;;;;;;;;;;5094201;28;20198;-78
2022/01/18 01:36:15;;;;;;;31.27;18.60;;;;;;;;;;5031141;28;20664;-78
2022/01/18 01:41:49;;;;;;;31.63;18.63;;;;;;;;;;5030089;28;20921;-78
2022/01/18 01:44:26;;;;;;;31.37;18.10;;;;;;;;;;5030434;28;20290;-78
2022/01/18 01:46:53;;;;;;;30.67;17.57;;;;;;;;;;5030563;28;20657;-78
2022/01/18 01:49:23;;;;;;;32.13;18.60;;;;;;;;;;5031170;28;20266;-77
2022/01/18 01:51:50;;;;;;;31.73;18.77;;;;;;;;;;5024186;28;20204;-78
2022/01/18 01:54:18;;;;;;;30.43;18.83;;;;;;;;;;5030649;28;20657;-78
2022/01/18 01:56:47;;;;;;;32.77;18.93;;;;;;;;;;5030168;28;20278;-78
2022/01/18 01:59:14;;;;;;;31.00;17.83;;;;;;;;;;5030331;28;20283;-78
2022/01/18 02:01:46;;;;;;;33.87;19.23;;;;;;;;;;5059148;28;20282;-77
2022/01/18 02:04:14;;;;;;;31.40;18.30;;;;;;;;;;5084132;28;20201;-78
2022/01/18 02:06:41;;;;;;;31.27;18.97;;;;;;;;;;5092930;28;20226;-78
2022/01/18 02:09:09;;;;;;;32.90;19.60;;;;;;;;;;5092425;28;20277;-78
2022/01/18 02:11:36;;;;;;;32.83;18.83;;;;;;;;;;5093318;28;20740;-78
2022/01/18 02:14:07;;;;;;;32.03;18.83;;;;;;;;;;5092089;28;20290;-78
2022/01/18 02:22:08;;;;;;;30.00;18.53;;;;;;;;;;5091985;28;20673;-78
2022/01/18 02:24:35;;;;;;;30.90;19.13;;;;;;;;;;5093156;28;20289;-78
2022/01/18 02:27:02;;;;;;;29.57;17.37;;;;;;;;;;5092537;28;20290;-78
2022/01/18 02:29:30;;;;;;;29.43;17.80;;;;;;;;;;5092076;28;20285;-78
2022/01/18 02:31:57;;;;;;;30.47;18.90;;;;;;;;;;5092421;28;20230;-78
2022/01/18 02:34:25;;;;;;;27.40;17.93;;;;;;;;;;5092845;28;20234;-78
2022/01/18 02:36:53;;;;;;;30.53;17.70;;;;;;;;;;5091725;28;20286;-78
2022/01/18 02:39:23;;;;;;;30.60;17.50;;;;;;;;;;5091375;28;20201;-78
2022/01/18 02:41:55;;;;;;;27.73;17.33;;;;;;;;;;5092104;28;20306;-78
2022/01/18 02:44:23;;;;;;;28.07;16.40;;;;;;;;;;5091577;28;20226;-78
2022/01/18 02:46:50;;;;;;;31.00;17.60;;;;;;;;;;5092350;28;20205;-78
2022/01/18 02:49:18;;;;;;;26.13;16.83;;;;;;;;;;5092576;28;20225;-78
2022/01/18 02:51:45;;;;;;;26.23;15.87;;;;;;;;;;5093849;28;20228;-77
2022/01/18 02:54:13;;;;;;;29.83;16.53;;;;;;;;;;5112208;28;20284;-78
2022/01/18 02:56:46;;;;;;;28.93;16.67;;;;;;;;;;5112531;28;20256;-78
2022/01/18 02:59:21;;;;;;;30.63;17.93;;;;;;;;;;5102514;28;20222;-78
2022/01/18 03:04:34;;;;;;;30.63;17.80;;;;;;;;;;5091211;28;20287;-78
2022/01/18 03:07:01;;;;;;;29.50;17.07;;;;;;;;;;5092134;28;20202;-78
2022/01/18 03:09:28;;;;;;;28.63;17.63;;;;;;;;;;5091266;28;20203;-78
2022/01/18 03:11:57;;;;;;;29.17;17.50;;;;;;;;;;5091680;28;20569;-78
2022/01/18 03:14:24;;;;;;;30.33;16.40;;;;;;;;;;5091604;28;20253;-78
2022/01/18 03:16:51;;;;;;;26.10;15.83;;;;;;;;;;5091648;28;20281;-78
2022/01/18 03:19:19;;;;;;;24.80;15.50;;;;;;;;;;5108790;28;20768;-78
2022/01/18 03:21:46;;;;;;;26.00;15.30;;;;;;;;;;5111709;28;20699;-77
2022/01/18 03:24:20;;;;;;;21.93;14.77;;;;;;;;;;5103094;28;20674;-78
2022/01/18 03:29:34;;;;;;;23.87;15.00;;;;;;;;;;5091276;28;20227;-78
2022/01/18 03:32:02;;;;;;;25.00;15.47;;;;;;;;;;5091490;28;20281;-78
2022/01/18 03:34:29;;;;;;;25.03;15.30;;;;;;;;;;5091379;28;20212;-78
2022/01/18 03:36:56;;;;;;;29.13;16.37;;;;;;;;;;5094544;28;20297;-78
2022/01/18 03:39:24;;;;;;;27.80;16.83;;;;;;;;;;5091269;28;20313;-78
2022/01/18 03:41:55;;;;;;;28.97;16.47;;;;;;;;;;5093862;28;20237;-78
2022/01/18 03:44:23;;;;;;;28.80;16.80;;;;;;;;;;5097438;28;20228;-78
2022/01/18 03:46:53;;;;;;;31.90;17.50;;;;;;;;;;5111570;28;20204;-78
2022/01/18 03:49:23;;;;;;;27.93;16.80;;;;;;;;;;5098432;28;20202;-78
2022/01/18 03:51:50;;;;;;;30.93;17.50;;;;;;;;;;5091168;28;20202;-78
2022/01/18 03:54:22;;;;;;;30.73;18.50;;;;;;;;;;5108585;28;20287;-78
2022/01/18 03:56:49;;;;;;;31.43;19.53;;;;;;;;;;5099269;28;20221;-78
2022/01/18 03:59:17;;;;;;;34.63;19.70;;;;;;;;;;5093820;28;20310;-78
2022/01/18 04:01:44;;;;;;;31.73;19.53;;;;;;;;;;5094942;28;20284;-78
2022/01/18 04:04:12;;;;;;;29.43;17.73;;;;;;;;;;5095422;28;20221;-78
2022/01/18 04:06:40;;;;;;;30.03;18.10;;;;;;;;;;5095081;28;20736;-78
2022/01/18 04:09:07;;;;;;;29.20;17.40;;;;;;;;;;5095092;28;20237;-78
2022/01/18 04:11:34;;;;;;;32.90;18.00;;;;;;;;;;5094866;28;20292;-78
2022/01/18 04:14:02;;;;;;;29.20;17.93;;;;;;;;;;5094151;28;20295;-78
2022/01/18 04:16:30;;;;;;;29.63;17.13;;;;;;;;;;5094878;28;20252;-78
2022/01/18 04:19:11;;;;;;;29.13;17.53;;;;;;;;;;5095308;28;20226;-78
2022/01/18 04:27:18;;;;;;;29.73;16.63;;;;;;;;;;5093971;28;20273;-78
2022/01/18 04:29:45;;;;;;;31.47;17.70;;;;;;;;;;5095335;28;20198;-78
2022/01/18 04:32:12;;;;;;;33.50;17.60;;;;;;;;;;5094092;28;20290;-77
2022/01/18 04:34:40;;;;;;;33.10;17.37;;;;;;;;;;5094553;28;20710;-78
2022/01/18 04:37:09;;;;;;;34.20;19.10;;;;;;;;;;5093801;28;20715;-78
2022/01/18 04:39:39;;;;;;;38.43;19.47;;;;;;;;;;5073938;28;20225;-78
2022/01/18 04:42:13;;;;;;;39.43;20.63;;;;;;;;;;5097651;28;20199;-78
2022/01/18 04:50:09;;;;;;;36.03;18.77;;;;;;;;;;5093569;28;20575;-78
2022/01/18 04:52:38;;;;;;;39.60;19.77;;;;;;;;;;5095670;28;20708;-78
2022/01/18 04:55:05;;;;;;;37.23;19.33;;;;;;;;;;5093932;28;20296;-78
2022/01/18 05:00:18;;;;;;;38.80;18.57;;;;;;;;;;5102327;28;20196;-78
2022/01/18 05:02:47;;;;;;;37.03;18.83;;;;;;;;;;5093290;28;20229;-78
2022/01/18 05:05:22;;;;;;;38.07;18.33;;;;;;;;;;5086695;28;20202;-78
2022/01/18 05:07:52;;;;;;;41.23;19.23;;;;;;;;;;5093965;28;20550;-78
2022/01/18 05:10:21;;;;;;;41.17;19.63;;;;;;;;;;5093392;28;20198;-78
2022/01/18 05:12:52;;;;;;;38.77;19.33;;;;;;;;;;5094028;28;20201;-78
2022/01/18 05:15:37;;;;;;;40.53;20.33;;;;;;;;;;5113699;28;20214;-78
2022/01/18 05:21:11;;;;;;;47.87;20.67;;;;;;;;;;5107427;28;20522;-78
2022/01/18 05:23:40;;;;;;;45.17;21.47;;;;;;;;;;5094415;28;20222;-78
2022/01/18 05:26:07;;;;;;;44.50;20.83;;;;;;;;;;5114341;28;20233;-78
2022/01/18 05:28:35;;;;;;;47.57;21.53;;;;;;;;;;5105798;28;20283;-77
2022/01/18 05:31:02;;;;;;;51.73;22.13;;;;;;;;;;5093595;28;20286;-78
2022/01/18 05:33:29;;;;;;;47.23;20.97;;;;;;;;;;5093766;28;20613;-78
2022/01/18 05:35:56;;;;;;;49.97;21.67;;;;;;;;;;5093484;28;20245;-78
2022/01/18 05:38:23;;;;;;;53.77;23.23;;;;;;;;;;5093609;28;20221;-78
2022/01/18 05:40:52;;;;;;;52.67;22.27;;;;;;;;;;5093810;28;20287;-78
2022/01/18 05:43:20;;;;;;;48.33;22.53;;;;;;;;;;5092766;28;20199;-77
2022/01/18 05:45:47;;;;;;;54.37;23.53;;;;;;;;;;5093117;28;20664;-78
2022/01/18 05:48:15;;;;;;;55.03;22.90;;;;;;;;;;5093164;28;20530;-78
2022/01/18 05:50:42;;;;;;;51.47;22.37;;;;;;;;;;5093326;28;20640;-78
2022/01/18 05:53:09;;;;;;;51.10;22.67;;;;;;;;;;5092582;28;20286;-78
2022/01/18 05:55:37;;;;;;;50.33;23.90;;;;;;;;;;5093117;28;20334;-77
2022/01/18 05:58:05;;;;;;;48.60;21.90;;;;;;;;;;5093307;28;20262;-77
2022/01/18 06:00:33;;;;;;;44.70;21.83;;;;;;;;;;5093531;28;20232;-78
2022/01/18 06:03:03;;;;;;;52.00;22.33;;;;;;;;;;5097929;28;20263;-77
2022/01/18 06:08:15;;;;;;;53.13;23.90;;;;;;;;;;5092184;28;20769;-77
2022/01/18 06:10:42;;;;;;;51.07;23.03;;;;;;;;;;5093152;28;20244;-78
2022/01/18 06:13:13;;;;;;;51.47;22.73;;;;;;;;;;5092599;28;20282;-77
2022/01/18 06:15:40;;;;;;;53.70;23.33;;;;;;;;;;5092881;28;20197;-78
2022/01/18 06:18:07;;;;;;;52.23;22.83;;;;;;;;;;5091939;28;22157;-77
2022/01/18 06:20:34;;;;;;;54.87;24.50;;;;;;;;;;5092326;28;20687;-78
2022/01/18 06:23:02;;;;;;;50.77;23.17;;;;;;;;;;5092198;28;20645;-78
2022/01/18 06:25:29;;;;;;;53.37;24.17;;;;;;;;;;5092355;28;20296;-78
2022/01/18 06:27:56;;;;;;;62.07;25.37;;;;;;;;;;5092690;28;20284;-78
2022/01/18 06:30:25;;;;;;;60.23;25.93;;;;;;;;;;5087605;28;20207;-78
2022/01/18 06:32:52;;;;;;;60.60;26.13;;;;;;;;;;5081844;28;20224;-78
2022/01/18 06:35:19;;;;;;;59.23;25.70;;;;;;;;;;5098983;28;20197;-78
2022/01/18 06:37:46;;;;;;;62.03;25.83;;;;;;;;;;5107519;28;20285;-78
2022/01/18 06:40:14;;;;;;;56.00;25.00;;;;;;;;;;5092993;28;20292;-78
2022/01/18 06:42:42;;;;;;;61.53;24.73;;;;;;;;;;5092057;28;20199;-78
2022/01/18 06:45:10;;;;;;;60.63;25.67;;;;;;;;;;5091974;28;20316;-78
2022/01/18 06:47:39;;;;;;;58.87;24.60;;;;;;;;;;5099915;28;20292;-78
2022/01/18 06:50:07;;;;;;;62.23;24.67;;;;;;;;;;5091668;28;20232;-79
2022/01/18 06:52:34;;;;;;;59.10;25.53;;;;;;;;;;5091796;28;20210;-79
2022/01/18 06:55:02;;;;;;;66.30;27.17;;;;;;;;;;5091345;28;20229;-79
2022/01/18 06:57:29;;;;;;;63.73;26.30;;;;;;;;;;5095545;28;20219;-78
2022/01/18 06:59:56;;;;;;;68.40;26.43;;;;;;;;;;5092146;28;20313;-79
2022/01/18 07:02:23;;;;;;;60.83;25.57;;;;;;;;;;5091659;28;20692;-78
2022/01/18 07:04:52;;;;;;;66.53;24.87;;;;;;;;;;5091196;28;20654;-79
2022/01/18 07:07:19;;;;;;;59.10;26.57;;;;;;;;;;5092455;28;20293;-79
2022/01/18 07:09:47;;;;;;;58.77;25.00;;;;;;;;;;5087825;28;20289;-79
2022/01/18 07:12:15;;;;;;;55.27;24.63;;;;;;;;;;5082088;28;20259;-78
2022/01/18 07:14:42;;;;;;;54.80;23.43;;;;;;;;;;5090466;28;20282;-79
2022/01/18 07:17:10;;;;;;;54.37;24.80;;;;;;;;;;5090488;28;20285;-78
2022/01/18 07:19:37;;;;;;;57.07;25.93;;;;;;;;;;5090506;28;20668;-79
2022/01/18 07:22:06;;;;;;;56.60;25.33;;;;;;;;;;5090995;28;20219;-78
2022/01/18 07:24:39;;;;;;;48.83;21.60;;;;;;;;;;5090728;28;20191;-78
2022/01/18 07:27:07;;;;;;;49.70;21.67;;;;;;;;;;5090663;28;20199;-78
2022/01/18 07:29:35;;;;;;;53.20;23.47;;;;;;;;;;5081842;28;20233;-78
2022/01/18 07:32:02;;;;;;;51.03;22.53;;;;;;;;;;5089844;28;20199;-78
2022/01/18 07:34:31;;;;;;;57.13;24.60;;;;;;;;;;5090336;28;20203;-78
2022/01/18 07:36:59;;;;;;;61.60;28.40;;;;;;;;;;5091620;28;20234;-78
2022/01/18 07:39:27;;;;;;;66.97;31.63;;;;;;;;;;5103670;28;20312;-77
2022/01/18 07:41:55;;;;;;;68.03;32.00;;;;;;;;;;5097830;28;20281;-78
2022/01/18 07:44:22;;;;;;;177.87;92.93;;;;;;;;;;5090447;28;20257;-78
2022/01/18 07:46:49;;;;;;;74.40;33.07;;;;;;;;;;5091559;28;20241;-78
2022/01/18 07:49:17;;;;;;;161.93;72.50;;;;;;;;;;5091091;28;20285;-78
2022/01/18 07:51:44;;;;;;;233.90;104.07;;;;;;;;;;5091054;28;20672;-78
2022/01/18 07:54:11;;;;;;;215.00;95.50;;;;;;;;;;5090732;28;20757;-79
2022/01/18 07:56:41;;;;;;;118.53;55.63;;;;;;;;;;5084795;28;20215;-79
2022/01/18 07:59:09;;;;;;;56.10;27.13;;;;;;;;;;5091081;28;20222;-79
2022/01/18 08:01:36;;;;;;;73.03;34.57;;;;;;;;;;5088965;28;20590;-78
2022/01/18 08:04:04;;;;;;;77.97;43.73;;;;;;;;;;5089718;28;20672;-78
2022/01/18 08:06:31;;;;;;;92.20;56.67;;;;;;;;;;5091426;28;20282;-78
2022/01/18 08:08:58;;;;;;;59.43;26.30;;;;;;;;;;5089577;28;20231;-77
2022/01/18 08:11:25;;;;;;;101.40;60.73;;;;;;;;;;5082467;28;20239;-78
2022/01/18 08:13:54;;;;;;;62.70;31.20;;;;;;;;;;5082273;28;20198;-77
2022/01/18 08:16:35;;;;;;;66.37;33.40;;;;;;;;;;5088416;28;20259;-78
2022/01/18 08:19:04;;;;;;;63.43;36.27;;;;;;;;;;5090217;28;20257;-78
2022/01/18 08:21:31;;;;;;;52.77;21.63;;;;;;;;;;5090146;28;20233;-77
2022/01/18 08:23:58;;;;;;;59.10;31.80;;;;;;;;;;5090137;28;20284;-77
2022/01/18 08:26:25;;;;;;;50.57;24.30;;;;;;;;;;5089980;28;20595;-77
2022/01/18 08:28:53;;;;;;;53.57;28.83;;;;;;;;;;5090345;28;20276;-77
2022/01/18 08:31:21;;;;;;;52.03;25.43;;;;;;;;;;5089372;28;20263;-77
2022/01/18 08:33:48;;;;;;;125.00;76.67;;;;;;;;;;5087922;28;20313;-78
2022/01/18 08:36:15;;;;;;;73.90;41.60;;;;;;;;;;5089696;28;20297;-79
2022/01/18 08:38:45;;;;;;;55.73;32.43;;;;;;;;;;5089722;28;20241;-78
2022/01/18 08:41:12;;;;;;;151.13;106.10;;;;;;;;;;5090095;28;20199;-78
2022/01/18 08:43:39;;;;;;;148.63;95.57;;;;;;;;;;5093474;28;20229;-78
2022/01/18 08:46:08;;;;;;;87.47;57.83;;;;;;;;;;5093658;28;20297;-78
2022/01/18 08:48:37;;;;;;;42.83;24.47;;;;;;;;;;5094243;28;20867;-78
2022/01/18 08:51:05;;;;;;;37.70;22.13;;;;;;;;;;5094032;28;20206;-79
2022/01/18 08:53:32;;;;;;;37.07;20.63;;;;;;;;;;5093808;28;20230;-79
2022/01/18 08:55:59;;;;;;;42.87;24.27;;;;;;;;;;5093065;28;20246;-79
2022/01/18 08:58:27;;;;;;;39.43;21.43;;;;;;;;;;5094281;28;20206;-78
2022/01/18 09:00:54;;;;;;;41.33;25.53;;;;;;;;;;5093020;28;20815;-79
2022/01/18 09:03:23;;;;;;;33.43;19.13;;;;;;;;;;5093033;28;20282;-79
2022/01/18 09:05:52;;;;;;;33.90;19.93;;;;;;;;;;5094306;28;20251;-79
2022/01/18 09:08:20;;;;;;;34.07;17.57;;;;;;;;;;5093777;28;20198;-79
2022/01/18 09:10:48;;;;;;;36.80;18.37;;;;;;;;;;5093298;28;20749;-79
2022/01/18 09:13:15;;;;;;;30.17;17.20;;;;;;;;;;5089481;28;20250;-78
2022/01/18 09:15:43;;;;;;;33.90;20.63;;;;;;;;;;5090394;28;20202;-79
2022/01/18 09:18:10;;;;;;;27.03;16.93;;;;;;;;;;5093312;28;20203;-78
2022/01/18 09:20:39;;;;;;;28.13;16.80;;;;;;;;;;5097493;28;20283;-79
2022/01/18 09:23:07;;;;;;;23.60;14.93;;;;;;;;;;5093215;28;20198;-79
2022/01/18 09:25:36;;;;;;;25.50;16.40;;;;;;;;;;5093815;28;20302;-79
2022/01/18 09:28:04;;;;;;;25.17;15.60;;;;;;;;;;5093611;28;20294;-78
2022/01/18 09:30:32;;;;;;;24.67;13.77;;;;;;;;;;5092680;28;20632;-78
2022/01/18 09:33:00;;;;;;;21.73;13.20;;;;;;;;;;5093042;28;20191;-78
2022/01/18 09:35:29;;;;;;;23.43;14.50;;;;;;;;;;5091650;28;20238;-78
2022/01/18 09:37:56;;;;;;;24.67;14.30;;;;;;;;;;5091975;28;20196;-79
2022/01/18 09:40:25;;;;;;;23.47;13.60;;;;;;;;;;5092881;28;20249;-79
2022/01/18 09:42:58;;;;;;;25.17;14.10;;;;;;;;;;5092478;28;20222;-78
2022/01/18 09:45:26;;;;;;;27.10;15.23;;;;;;;;;;5099747;28;21680;-78
2022/01/18 09:47:54;;;;;;;26.43;14.30;;;;;;;;;;5093531;28;20199;-78
2022/01/18 09:50:22;;;;;;;26.27;14.10;;;;;;;;;;5092832;28;20222;-78
2022/01/18 09:52:53;;;;;;;22.83;13.20;;;;;;;;;;5088135;28;20211;-79
2022/01/18 09:55:20;;;;;;;24.70;13.60;;;;;;;;;;5091660;28;20202;-79
2022/01/18 09:57:49;;;;;;;25.07;16.13;;;;;;;;;;5083371;28;20288;-78
2022/01/18 10:00:17;;;;;;;28.97;15.40;;;;;;;;;;5095337;28;20751;-78
2022/01/18 10:02:45;;;;;;;30.20;17.27;;;;;;;;;;5090855;28;20377;-79
2022/01/18 10:05:19;;;;;;;28.03;14.27;;;;;;;;;;5091713;28;20233;-79
2022/01/18 10:07:47;;;;;;;22.90;13.60;;;;;;;;;;5089928;28;20304;-78
2022/01/18 10:10:14;;;;;;;29.00;17.40;;;;;;;;;;5091505;28;20293;-79
2022/01/18 10:12:41;;;;;;;25.40;14.40;;;;;;;;;;5089944;28;20284;-78
2022/01/18 10:15:10;;;;;;;31.50;18.33;;;;;;;;;;5090451;28;20296;-78
2022/01/18 10:17:38;;;;;;;59.23;40.73;;;;;;;;;;5096175;28;20248;-78
2022/01/18 10:20:07;;;;;;;25.90;16.70;;;;;;;;;;5095068;28;20260;-78
2022/01/18 10:22:40;;;;;;;22.70;12.50;;;;;;;;;;5095501;28;20213;-78
2022/01/18 10:25:15;;;;;;;25.67;15.77;;;;;;;;;;5090168;28;20209;-79
2022/01/18 10:27:42;;;;;;;22.43;13.17;;;;;;;;;;5090254;28;20260;-79
2022/01/18 10:30:16;;;;;;;19.27;12.07;;;;;;;;;;5092310;28;20199;-79
2022/01/18 10:32:44;;;;;;;18.57;11.07;;;;;;;;;;5093921;28;20211;-79
2022/01/18 10:35:11;;;;;;;23.53;15.03;;;;;;;;;;5090148;28;20681;-79
2022/01/18 10:37:41;;;;;;;19.97;11.87;;;;;;;;;;5091368;28;20273;-79
2022/01/18 10:40:10;;;;;;;20.67;11.10;;;;;;;;;;5090147;28;20222;-79
2022/01/18 10:42:42;;;;;;;19.80;11.57;;;;;;;;;;5089695;28;20290;-79
2022/01/18 10:45:13;;;;;;;17.13;11.30;;;;;;;;;;5089904;28;20271;-79
2022/01/18 10:47:48;;;;;;;21.03;12.37;;;;;;;;;;5090139;28;20620;-79
2022/01/18 10:50:17;;;;;;;19.83;12.40;;;;;;;;;;5089081;28;20625;-79
2022/01/18 10:52:44;;;;;;;20.00;12.53;;;;;;;;;;5085791;28;20290;-79
2022/01/18 10:55:15;;;;;;;23.03;12.73;;;;;;;;;;5088222;28;20222;-79
2022/01/18 10:57:42;;;;;;;22.57;13.27;;;;;;;;;;5087431;28;20277;-79
2022/01/18 11:00:13;;;;;;;17.53;12.20;;;;;;;;;;5085223;28;20218;-79
2022/01/18 11:02:41;;;;;;;20.40;12.80;;;;;;;;;;5090814;28;20285;-80
2022/01/18 11:05:16;;;;;;;21.17;12.57;;;;;;;;;;5097889;28;20284;-79
2022/01/18 11:07:44;;;;;;;22.47;12.93;;;;;;;;;;5091028;28;20281;-79
2022/01/18 11:10:12;;;;;;;20.13;12.97;;;;;;;;;;5091531;28;20200;-80
2022/01/18 11:12:49;;;;;;;21.67;13.70;;;;;;;;;;5088422;28;20298;-79
2022/01/18 11:15:20;;;;;;;20.63;12.63;;;;;;;;;;5091510;28;20685;-79
2022/01/18 11:17:56;;;;;;;20.47;12.60;;;;;;;;;;5091708;28;20199;-80
2022/01/18 11:20:23;;;;;;;26.03;17.83;;;;;;;;;;5092025;28;20274;-81
2022/01/18 11:22:51;;;;;;;22.23;15.27;;;;;;;;;;5091350;28;20293;-80
2022/01/18 11:25:19;;;;;;;19.63;12.67;;;;;;;;;;5091552;28;20264;-81
2022/01/18 11:27:49;;;;;;;20.37;14.07;;;;;;;;;;5091443;28;20226;-80
2022/01/18 11:30:18;;;;;;;20.23;13.20;;;;;;;;;;5091756;28;20202;-81
2022/01/18 11:32:45;;;;;;;18.27;12.97;;;;;;;;;;5092011;28;20892;-80
2022/01/18 11:35:14;;;;;;;16.50;11.30;;;;;;;;;;5092211;28;20210;-81
2022/01/18 11:37:45;;;;;;;16.77;11.43;;;;;;;;;;5091166;28;20291;-78
2022/01/18 11:40:14;;;;;;;18.83;13.37;;;;;;;;;;5100940;28;20352;-78
2022/01/18 11:42:44;;;;;;;18.50;11.40;;;;;;;;;;5102563;28;20231;-78
2022/01/18 11:45:37;;;;;;;17.63;11.77;;;;;;;;;;5097419;28;20281;-78
2022/01/18 11:48:06;;;;;;;17.70;11.93;;;;;;;;;;5091188;28;20198;-78
2022/01/18 11:50:34;;;;;;;15.87;10.50;;;;;;;;;;5091384;28;20285;-77
2022/01/18 11:53:39;;;;;;;18.07;11.77;;;;;;;;;;5093170;28;20570;-78
2022/01/18 11:56:07;;;;;;;16.30;11.77;;;;;;;;;;4990679;28;20257;-78
2022/01/18 11:58:34;;;;;;;17.20;11.77;;;;;;;;;;5015282;28;20636;-77
2022/01/18 12:01:03;;;;;;;16.40;11.33;;;;;;;;;;5008618;28;20310;-77
2022/01/18 12:03:31;;;;;;;17.57;12.00;;;;;;;;;;5009133;28;20198;-77
2022/01/18 12:05:59;;;;;;;19.90;11.60;;;;;;;;;;5008557;28;20202;-77
2022/01/18 12:08:31;;;;;;;18.43;11.63;;;;;;;;;;5009140;28;20292;-77
2022/01/18 12:10:58;;;;;;;18.13;11.97;;;;;;;;;;5009161;28;20280;-77
2022/01/18 12:13:30;;;;;;;17.70;11.80;;;;;;;;;;5009085;28;20377;-77
2022/01/18 12:15:58;;;;;;;17.30;12.10;;;;;;;;;;5009362;28;20212;-78
2022/01/18 12:18:27;;;;;;;17.03;12.07;;;;;;;;;;5008489;28;20566;-78
2022/01/18 12:20:55;;;;;;;16.80;12.10;;;;;;;;;;5017637;28;20236;-77
2022/01/18 12:23:23;;;;;;;16.90;11.07;;;;;;;;;;5011654;28;20231;-77
2022/01/18 12:25:59;;;;;;;31.77;13.53;;;;;;;;;;5012608;28;20292;-77
2022/01/18 12:29:18;;;;;;;18.40;11.50;;;;;;;;;;5012485;28;20302;-77
2022/01/18 12:32:07;;;;;;;22.80;11.67;;;;;;;;;;4989602;28;20194;-77
2022/01/18 12:34:38;;;;;;;17.73;12.73;;;;;;;;;;5048920;28;20572;-77
2022/01/18 12:37:24;;;;;;;18.20;12.30;;;;;;;;;;5051740;28;20290;-77
2022/01/18 12:40:05;;;;;;;19.23;12.83;;;;;;;;;;5041487;28;20211;-77
2022/01/18 12:45:20;;;;;;;20.63;13.20;;;;;;;;;;5050936;28;20714;-77
2022/01/18 12:47:48;;;;;;;19.57;13.27;;;;;;;;;;5044710;28;20204;-77
2022/01/18 12:50:19;;;;;;;21.63;13.07;;;;;;;;;;5023202;28;20331;-77
2022/01/18 12:52:47;;;;;;;19.10;13.03;;;;;;;;;;5041713;28;20204;-77
2022/01/18 12:55:25;;;;;;;23.33;14.33;;;;;;;;;;5031862;28;20200;-77
2022/01/18 12:57:58;;;;;;;20.57;12.77;;;;;;;;;;5045429;28;20274;-77
2022/01/18 13:00:25;;;;;;;16.80;11.77;;;;;;;;;;5036444;28;20294;-76
2022/01/18 13:02:53;;;;;;;22.77;13.30;;;;;;;;;;5037316;28;20279;-77
2022/01/18 13:05:21;;;;;;;19.13;12.73;;;;;;;;;;5035505;28;20298;-77
2022/01/18 13:07:51;;;;;;;19.77;12.57;;;;;;;;;;5074686;28;20319;-77
2022/01/18 13:10:19;;;;;;;16.50;11.40;;;;;;;;;;5093714;28;20274;-77
2022/01/18 13:12:46;;;;;;;20.97;12.70;;;;;;;;;;5093156;28;20196;-77
2022/01/18 13:15:23;;;;;;;20.27;13.00;;;;;;;;;;5091512;28;20205;-77
2022/01/18 13:23:31;;;;;;;15.47;11.47;;;;;;;;;;5097383;28;20774;-77
2022/01/18 13:26:01;;;;;;;18.77;11.23;;;;;;;;;;5094469;28;20236;-77
2022/01/18 13:28:33;;;;;;;16.97;11.53;;;;;;;;;;5093019;28;20208;-77
2022/01/18 13:31:14;;;;;;;17.33;11.83;;;;;;;;;;5093107;28;20247;-77
2022/01/18 13:33:51;;;;;;;18.00;11.97;;;;;;;;;;5083626;28;20671;-77
2022/01/18 13:36:21;;;;;;;20.00;11.97;;;;;;;;;;5097892;28;20205;-77
2022/01/18 13:38:49;;;;;;;18.43;11.87;;;;;;;;;;5093294;28;20274;-77
2022/01/18 13:41:16;;;;;;;15.47;10.43;;;;;;;;;;5094351;28;20219;-77
2022/01/18 13:43:43;;;;;;;16.10;10.37;;;;;;;;;;5102406;28;20205;-76
2022/01/18 13:46:11;;;;;;;15.60;10.00;;;;;;;;;;5091873;28;20325;-77
2022/01/18 13:48:38;;;;;;;15.30;9.23;;;;;;;;;;5090561;28;20277;-77
2022/01/18 13:51:14;;;;;;;14.47;9.70;;;;;;;;;;5091755;28;20199;-77
2022/01/18 13:53:43;;;;;;;18.03;10.57;;;;;;;;;;5106290;28;20277;-77
2022/01/18 13:56:13;;;;;;;16.33;10.13;;;;;;;;;;5104435;28;20557;-77
2022/01/18 13:58:42;;;;;;;16.20;10.00;;;;;;;;;;5109685;28;20286;-76
2022/01/18 14:01:10;;;;;;;14.67;9.47;;;;;;;;;;5100402;28;20669;-76
2022/01/18 14:03:38;;;;;;;15.40;10.00;;;;;;;;;;5092011;28;20289;-76
2022/01/18 14:06:07;;;;;;;15.80;10.33;;;;;;;;;;5091591;28;20282;-77
2022/01/18 14:08:36;;;;;;;16.77;10.30;;;;;;;;;;5087702;28;20190;-77
2022/01/18 14:11:05;;;;;;;17.13;11.33;;;;;;;;;;5090697;28;20691;-77
2022/01/18 14:13:36;;;;;;;18.20;10.80;;;;;;;;;;5091685;28;20707;-77
2022/01/18 14:16:04;;;;;;;18.97;10.90;;;;;;;;;;5091636;28;20674;-77
2022/01/18 14:18:31;;;;;;;16.67;10.87;;;;;;;;;;5091813;28;20234;-78
2022/01/18 14:20:58;;;;;;;18.73;11.17;;;;;;;;;;5091895;28;20308;-77
2022/01/18 14:23:25;;;;;;;18.30;11.43;;;;;;;;;;5090289;28;20284;-78
2022/01/18 14:25:52;;;;;;;16.60;10.97;;;;;;;;;;5088905;28;20294;-77
2022/01/18 14:28:29;;;;;;;20.80;13.90;;;;;;;;;;5092173;28;20234;-78
2022/01/18 14:31:06;;;;;;;21.67;11.87;;;;;;;;;;5089836;28;20194;-77
2022/01/18 14:33:33;;;;;;;15.87;10.90;;;;;;;;;;5091107;28;20282;-77
2022/01/18 14:36:00;;;;;;;15.80;10.10;;;;;;;;;;5094319;28;20237;-77
2022/01/18 14:38:29;;;;;;;17.10;10.33;;;;;;;;;;5098254;28;20277;-77
2022/01/18 14:40:56;;;;;;;14.50;10.30;;;;;;;;;;5090908;28;20649;-77
2022/01/18 14:43:28;;;;;;;15.60;10.17;;;;;;;;;;5091584;28;20313;-76
2022/01/18 14:46:01;;;;;;;16.77;10.37;;;;;;;;;;5090774;28;20222;-76
2022/01/18 14:48:30;;;;;;;16.53;9.83;;;;;;;;;;5091660;28;20203;-78
2022/01/18 14:50:57;;;;;;;15.20;9.87;;;;;;;;;;5087479;28;20199;-77
2022/01/18 14:53:25;;;;;;;15.10;10.67;;;;;;;;;;5092039;28;20225;-78
2022/01/18 14:55:53;;;;;;;15.63;10.40;;;;;;;;;;5091822;28;20219;-78
2022/01/18 14:58:20;;;;;;;16.17;10.97;;;;;;;;;;5101880;28;20285;-78
2022/01/18 15:00:49;;;;;;;17.43;10.90;;;;;;;;;;5074761;28;20273;-77
2022/01/18 15:03:17;;;;;;;20.20;11.70;;;;;;;;;;5090930;28;20210;-77
2022/01/18 15:05:44;;;;;;;18.63;11.57;;;;;;;;;;5090935;28;20205;-76
2022/01/18 15:08:13;;;;;;;18.93;13.17;;;;;;;;;;5103992;28;20624;-76
2022/01/18 15:10:40;;;;;;;19.87;14.60;;;;;;;;;;5091486;28;20202;-77
2022/01/18 15:13:07;;;;;;;28.37;23.50;;;;;;;;;;5081042;28;20285;-77
2022/01/18 15:15:35;;;;;;;27.80;19.07;;;;;;;;;;5091932;28;20275;-77
2022/01/18 15:18:03;;;;;;;30.90;21.40;;;;;;;;;;5090551;28;20285;-77
2022/01/18 15:20:31;;;;;;;25.37;14.90;;;;;;;;;;5091706;28;20289;-77
2022/01/18 15:22:58;;;;;;;25.73;17.00;;;;;;;;;;5090694;28;20307;-76
2022/01/18 15:25:26;;;;;;;28.87;21.93;;;;;;;;;;5091339;28;20289;-77
2022/01/18 15:27:53;;;;;;;18.43;12.77;;;;;;;;;;5091380;28;20289;-76